createdAt,value
2022-12-11T00:01:25.385Z,27.95
2022-12-11T00:03:52.054Z,28.75
2022-12-11T00:06:21.032Z,25.67
2022-12-11T00:08:47.940Z,26.20
2022-12-11T00:11:16.760Z,28.20
2022-12-11T00:13:43.701Z,28.98
2022-12-11T00:16:10.787Z,28.23
2022-12-11T00:18:37.529Z,27.73
2022-12-11T00:21:05.765Z,27.42
2022-12-11T00:23:34.217Z,28.60
2022-12-11T00:26:00.846Z,28.75
2022-12-11T00:28:27.427Z,27.17
2022-12-11T00:30:53.983Z,27.75
2022-12-11T00:33:20.370Z,29.00
2022-12-11T00:35:47.212Z,28.55
2022-12-11T00:38:19.105Z,26.67
2022-12-11T00:40:46.164Z,29.52
2022-12-11T00:43:12.822Z,28.05
2022-12-11T00:45:42.045Z,28.90
2022-12-11T00:48:09.077Z,29.23
2022-12-11T00:50:36.154Z,30.73
2022-12-11T00:53:04.475Z,27.73
2022-12-11T00:55:31.333Z,24.90
2022-12-11T00:57:58.357Z,26.75
2022-12-11T01:00:25.041Z,26.52
2022-12-11T01:02:51.701Z,26.55
2022-12-11T01:05:18.594Z,22.70
2022-12-11T01:07:45.119Z,24.92
2022-12-11T01:10:25.536Z,24.60
2022-12-11T01:13:01.220Z,23.80
2022-12-11T01:15:30.619Z,24.85
2022-12-11T01:17:57.505Z,25.75
2022-12-11T01:20:25.798Z,26.63
2022-12-11T01:22:53.885Z,24.83
2022-12-11T01:25:20.922Z,24.87
2022-12-11T01:27:47.276Z,24.73
2022-12-11T01:30:14.657Z,24.75
2022-12-11T01:32:41.009Z,26.10
2022-12-11T01:35:08.264Z,24.98
2022-12-11T01:37:34.969Z,25.83
2022-12-11T01:40:02.392Z,22.17
2022-12-11T01:42:29.728Z,24.95
2022-12-11T01:45:29.528Z,26.17
2022-12-11T01:48:02.375Z,23.45
2022-12-11T01:50:32.337Z,25.45
2022-12-11T01:52:59.184Z,22.42
2022-12-11T01:55:26.035Z,23.67
2022-12-11T01:57:53.140Z,22.23
2022-12-11T02:00:20.869Z,22.10
2022-12-11T02:02:47.750Z,24.20
2022-12-11T02:05:14.937Z,22.33
2022-12-11T02:07:51.564Z,20.63
2022-12-11T02:10:18.482Z,24.92
2022-12-11T02:12:57.668Z,23.70
2022-12-11T02:15:35.843Z,21.55
2022-12-11T02:18:11.173Z,21.95
2022-12-11T02:20:49.087Z,23.40
2022-12-11T02:23:43.244Z,22.25
2022-12-11T02:26:20.414Z,21.30
2022-12-11T02:28:51.877Z,19.05
2022-12-11T02:31:41.210Z,20.63
2022-12-11T02:34:13.428Z,21.27
2022-12-11T02:36:43.581Z,21.05
2022-12-11T02:39:14.430Z,20.52
2022-12-11T02:41:46.890Z,23.25
2022-12-11T02:44:16.148Z,23.48
2022-12-11T02:46:44.839Z,22.08
2022-12-11T02:49:13.672Z,20.85
2022-12-11T02:51:42.071Z,22.73
2022-12-11T02:54:15.365Z,21.35
2022-12-11T02:56:47.503Z,21.48
2022-12-11T02:59:52.589Z,19.50
2022-12-11T03:02:19.250Z,20.38
2022-12-11T03:04:48.369Z,18.40
2022-12-11T03:07:19.249Z,20.13
2022-12-11T03:09:47.613Z,19.45
2022-12-11T03:12:18.709Z,20.52
2022-12-11T03:14:45.633Z,20.55
2022-12-11T03:17:32.053Z,22.15
2022-12-11T03:20:26.762Z,22.13
2022-12-11T03:23:02.456Z,23.52
2022-12-11T03:25:38.939Z,22.08
2022-12-11T03:28:35.705Z,21.92
2022-12-11T03:31:07.984Z,21.17
2022-12-11T03:33:38.911Z,19.65
2022-12-11T03:36:10.133Z,22.38
2022-12-11T03:38:38.829Z,21.75
2022-12-11T03:41:07.821Z,21.92
2022-12-11T03:43:35.517Z,23.50
2022-12-11T03:46:02.434Z,21.25
2022-12-11T03:48:34.607Z,22.63
2022-12-11T03:51:05.303Z,20.10
2022-12-11T03:53:37.010Z,21.33
2022-12-11T03:56:07.147Z,22.45
2022-12-11T03:58:33.755Z,20.05
2022-12-11T04:01:00.492Z,22.70
2022-12-11T04:03:27.061Z,23.98
2022-12-11T04:05:55.368Z,23.08
2022-12-11T04:08:23.072Z,23.40
2022-12-11T04:11:09.835Z,24.80
2022-12-11T04:13:37.253Z,22.50
2022-12-11T04:16:04.117Z,21.85
2022-12-11T04:18:49.370Z,26.63
2022-12-11T04:21:39.225Z,26.45
2022-12-11T04:24:15.419Z,29.20
2022-12-11T04:26:47.304Z,28.63
2022-12-11T04:29:14.747Z,26.63
2022-12-11T04:31:41.550Z,27.15
2022-12-11T04:34:08.151Z,27.52
2022-12-11T04:36:34.550Z,28.05
2022-12-11T04:39:01.042Z,30.08
2022-12-11T04:41:27.406Z,31.25
2022-12-11T04:43:53.873Z,28.30
2022-12-11T04:46:22.769Z,28.13
2022-12-11T04:48:55.368Z,32.00
2022-12-11T04:51:23.987Z,30.95
2022-12-11T04:53:50.488Z,27.40
2022-12-11T04:56:17.132Z,33.92
2022-12-11T04:58:45.054Z,27.08
2022-12-11T05:01:17.493Z,29.17
2022-12-11T05:03:44.594Z,28.02
2022-12-11T05:06:11.810Z,31.27
2022-12-11T05:08:40.408Z,28.85
2022-12-11T05:11:09.905Z,29.48
2022-12-11T05:13:36.918Z,32.80
2022-12-11T05:16:08.631Z,30.17
2022-12-11T05:18:35.220Z,28.90
2022-12-11T05:21:06.901Z,30.15
2022-12-11T05:23:34.001Z,30.88
2022-12-11T05:26:03.720Z,28.20
2022-12-11T05:28:32.138Z,31.05
2022-12-11T05:31:06.051Z,28.33
2022-12-11T05:33:32.750Z,30.52
2022-12-11T05:35:59.282Z,31.55
2022-12-11T05:38:25.844Z,35.20
2022-12-11T05:40:57.933Z,30.92
2022-12-11T05:43:24.966Z,33.17
2022-12-11T05:45:51.514Z,35.90
2022-12-11T05:48:18.003Z,32.45
2022-12-11T05:50:44.510Z,30.35
2022-12-11T05:53:10.992Z,34.00
2022-12-11T05:55:37.512Z,36.30
2022-12-11T05:58:04.021Z,30.92
2022-12-11T06:00:35.879Z,29.35
2022-12-11T06:03:02.869Z,30.95
2022-12-11T06:05:29.524Z,31.15
2022-12-11T06:07:56.129Z,27.33
2022-12-11T06:10:22.639Z,27.40
2022-12-11T06:12:49.206Z,29.98
2022-12-11T06:15:15.766Z,27.63
2022-12-11T06:17:42.150Z,32.72
2022-12-11T06:20:08.965Z,27.90
2022-12-11T06:22:35.551Z,28.40
2022-12-11T06:25:02.029Z,29.60
2022-12-11T06:27:28.505Z,30.23
2022-12-11T06:29:54.823Z,28.77
2022-12-11T06:32:22.239Z,30.88
2022-12-11T06:34:48.778Z,27.65
2022-12-11T06:37:15.317Z,29.15
2022-12-11T06:39:41.849Z,28.88
2022-12-11T06:42:08.342Z,24.98
2022-12-11T06:44:34.822Z,25.23
2022-12-11T06:47:01.121Z,24.13
2022-12-11T06:49:27.619Z,26.95
2022-12-11T06:51:54.105Z,25.85
2022-12-11T06:54:20.630Z,24.30
2022-12-11T06:56:47.250Z,22.55
2022-12-11T06:59:13.794Z,27.98
2022-12-11T07:01:40.877Z,25.35
2022-12-11T07:04:09.185Z,23.45
2022-12-11T07:06:35.890Z,26.83
2022-12-11T07:09:05.365Z,26.95
2022-12-11T07:11:31.945Z,27.52
2022-12-11T07:14:01.215Z,27.02
2022-12-11T07:16:27.991Z,27.73
2022-12-11T07:18:54.537Z,30.95
2022-12-11T07:21:21.407Z,32.97
2022-12-11T07:23:49.034Z,34.30
2022-12-11T07:26:17.671Z,30.45
2022-12-11T07:28:44.766Z,31.63
2022-12-11T07:31:13.834Z,31.15
2022-12-11T07:33:41.037Z,30.58
2022-12-11T07:36:09.829Z,29.92
2022-12-11T07:38:36.936Z,30.58
2022-12-11T07:41:07.440Z,30.40
2022-12-11T07:43:35.353Z,30.05
2022-12-11T07:46:05.367Z,31.13
2022-12-11T07:48:32.186Z,26.83
2022-12-11T07:51:26.699Z,28.40
2022-12-11T07:53:58.209Z,30.20
2022-12-11T07:56:25.643Z,28.65
2022-12-11T07:58:52.181Z,28.27
2022-12-11T08:01:26.056Z,29.58
2022-12-11T08:03:53.782Z,27.58
2022-12-11T08:06:25.088Z,30.38
2022-12-11T08:08:51.573Z,29.42
2022-12-11T08:11:18.061Z,30.02
2022-12-11T08:13:45.021Z,33.10
2022-12-11T08:16:13.636Z,34.17
2022-12-11T08:18:40.897Z,34.35
2022-12-11T08:21:13.241Z,39.53
2022-12-11T08:23:39.947Z,36.92
2022-12-11T08:26:09.285Z,35.75
2022-12-11T08:28:35.811Z,35.15
2022-12-11T08:31:05.693Z,34.40
2022-12-11T08:33:32.317Z,33.55
2022-12-11T08:35:58.832Z,37.65
2022-12-11T08:38:25.793Z,58.40
2022-12-11T08:40:52.346Z,57.53
2022-12-11T08:43:18.871Z,49.60
2022-12-11T08:45:46.740Z,39.83
2022-12-11T08:48:13.389Z,42.20
2022-12-11T08:50:39.710Z,48.17
2022-12-11T08:53:06.130Z,35.00
2022-12-11T08:55:33.486Z,28.70
2022-12-11T08:58:00.538Z,23.10
2022-12-11T09:00:26.857Z,22.10
2022-12-11T09:02:53.389Z,23.58
2022-12-11T09:05:19.925Z,23.45
2022-12-11T09:07:46.838Z,19.38
2022-12-11T09:10:13.229Z,19.45
2022-12-11T09:12:39.693Z,16.15
2022-12-11T09:15:06.681Z,16.98
2022-12-11T09:17:34.566Z,16.35
2022-12-11T09:20:01.845Z,17.25
2022-12-11T09:22:28.625Z,19.02
2022-12-11T09:24:55.159Z,16.50
2022-12-11T09:27:22.071Z,19.30
2022-12-11T09:29:48.453Z,16.17
2022-12-11T09:32:14.826Z,18.27
2022-12-11T09:34:41.122Z,16.27
2022-12-11T09:37:07.779Z,15.90
2022-12-11T09:39:34.346Z,16.55
2022-12-11T09:42:00.717Z,17.98
2022-12-11T09:44:51.850Z,13.98
2022-12-11T09:47:28.933Z,14.10
2022-12-11T09:50:13.210Z,14.52
2022-12-11T09:52:55.425Z,14.23
2022-12-11T09:55:24.454Z,13.50
2022-12-11T09:58:11.546Z,14.30
2022-12-11T10:00:48.125Z,15.77
2022-12-11T10:03:31.093Z,14.90
2022-12-11T10:06:22.086Z,14.25
2022-12-11T10:08:53.769Z,13.68
2022-12-11T10:11:23.276Z,13.13
2022-12-11T10:14:14.388Z,15.52
2022-12-11T10:16:51.650Z,11.45
2022-12-11T10:19:27.780Z,11.68
2022-12-11T10:21:55.673Z,12.52
2022-12-11T10:25:07.669Z,14.60
2022-12-11T10:27:22.455Z,13.38
2022-12-11T10:29:57.108Z,13.18
2022-12-11T10:32:29.441Z,17.27
2022-12-11T10:35:05.501Z,14.32
2022-12-11T10:37:31.858Z,13.77
2022-12-11T10:39:58.207Z,17.45
2022-12-11T10:42:24.690Z,17.05
2022-12-11T10:45:00.930Z,14.45
2022-12-11T10:47:28.474Z,16.10
2022-12-11T10:49:58.417Z,16.27
2022-12-11T10:52:29.708Z,16.02
2022-12-11T10:55:03.199Z,19.15
2022-12-11T10:57:35.864Z,17.95
2022-12-11T11:00:05.044Z,18.42
2022-12-11T11:02:36.012Z,17.07
2022-12-11T11:05:17.181Z,19.40
2022-12-11T11:07:44.036Z,15.50
2022-12-11T11:10:10.709Z,16.10
2022-12-11T11:12:49.083Z,18.98
2022-12-11T11:15:23.326Z,19.13
2022-12-11T11:17:56.315Z,18.77
2022-12-11T11:20:26.446Z,19.13
2022-12-11T11:22:56.886Z,14.27
2022-12-11T11:25:26.018Z,16.45
2022-12-11T11:28:04.789Z,15.50
2022-12-11T11:30:35.797Z,20.13
2022-12-11T11:33:16.067Z,18.23
2022-12-11T11:35:55.286Z,16.95
2022-12-11T11:38:26.683Z,19.20
2022-12-11T11:41:05.670Z,19.95
2022-12-11T11:43:55.201Z,17.98
2022-12-11T11:46:32.319Z,17.58
2022-12-11T11:49:19.075Z,15.48
2022-12-11T11:52:01.564Z,16.55
2022-12-11T11:54:46.790Z,13.82
2022-12-11T11:57:35.537Z,14.82
2022-12-11T12:00:09.780Z,14.30
2022-12-11T12:02:37.046Z,11.35
2022-12-11T12:05:03.879Z,13.75
2022-12-11T12:08:03.720Z,16.02
2022-12-11T12:10:38.041Z,17.38
2022-12-11T12:13:47.579Z,19.15
2022-12-11T12:16:17.814Z,11.52
2022-12-11T12:19:22.705Z,14.80
2022-12-11T12:21:52.840Z,15.57
2022-12-11T12:24:33.434Z,17.48
2022-12-11T12:27:52.079Z,20.20
2022-12-11T12:30:22.358Z,19.92
2022-12-11T12:33:14.990Z,17.90
2022-12-11T12:36:05.077Z,19.40
2022-12-11T12:38:48.495Z,22.40
2022-12-11T12:41:29.154Z,21.10
2022-12-11T12:44:07.925Z,19.55
2022-12-11T12:46:49.193Z,24.23
2022-12-11T12:49:46.300Z,23.48
2022-12-11T12:52:20.690Z,24.60
2022-12-11T12:55:11.293Z,20.00
2022-12-11T12:57:40.522Z,19.92
2022-12-11T13:00:13.291Z,21.55
2022-12-11T13:02:50.957Z,23.58
2022-12-11T13:05:24.067Z,23.77
2022-12-11T13:07:56.856Z,23.33
2022-12-11T13:10:26.527Z,23.30
2022-12-11T13:12:53.543Z,23.80
2022-12-11T13:15:43.881Z,25.17
2022-12-11T13:18:31.144Z,22.73
2022-12-11T13:20:57.482Z,21.75
2022-12-11T13:23:42.270Z,22.23
2022-12-11T13:26:09.294Z,24.77
2022-12-11T13:28:38.760Z,24.88
2022-12-11T13:31:30.424Z,19.33
2022-12-11T13:34:03.336Z,19.63
2022-12-11T13:36:37.739Z,21.30
2022-12-11T13:39:18.583Z,18.98
2022-12-11T13:41:53.823Z,18.58
2022-12-11T13:44:26.106Z,16.60
2022-12-11T13:46:55.819Z,19.30
2022-12-11T13:49:26.792Z,20.00
2022-12-11T13:51:59.111Z,21.23
2022-12-11T13:54:27.040Z,20.65
2022-12-11T13:57:22.039Z,16.77
2022-12-11T13:59:54.559Z,18.70
2022-12-11T14:02:26.879Z,20.08
2022-12-11T14:05:00.892Z,22.33
2022-12-11T14:07:31.251Z,20.45
2022-12-11T14:10:05.980Z,21.48
2022-12-11T14:12:32.781Z,18.60
2022-12-11T14:15:01.996Z,18.27
2022-12-11T14:17:31.642Z,16.10
2022-12-11T14:20:00.449Z,16.58
2022-12-11T14:22:29.395Z,17.02
2022-12-11T14:25:03.586Z,20.75
2022-12-11T14:27:30.687Z,19.55
2022-12-11T14:29:57.321Z,20.48
2022-12-11T14:32:36.957Z,19.80
2022-12-11T14:35:07.355Z,21.23
2022-12-11T14:37:36.565Z,19.70
2022-12-11T14:40:07.469Z,19.20
2022-12-11T14:42:48.047Z,17.98
2022-12-11T14:45:33.438Z,20.25
2022-12-11T14:48:08.317Z,18.35
2022-12-11T14:50:48.457Z,16.95
2022-12-11T14:53:23.405Z,16.85
2022-12-11T14:55:50.712Z,21.25
2022-12-11T14:58:22.609Z,20.40
2022-12-11T15:01:07.009Z,19.77
2022-12-11T15:03:37.484Z,18.45
2022-12-11T15:06:23.688Z,19.83
2022-12-11T15:08:50.298Z,19.58
2022-12-11T15:11:18.628Z,16.92
2022-12-11T15:13:53.252Z,19.02
2022-12-11T15:16:20.987Z,18.67
2022-12-11T15:18:50.657Z,17.17
2022-12-11T15:21:19.093Z,17.80
2022-12-11T15:23:52.620Z,14.05
2022-12-11T15:26:21.609Z,17.13
2022-12-11T15:28:48.225Z,19.02
2022-12-11T15:31:26.794Z,17.00
2022-12-11T15:33:53.568Z,20.40
2022-12-11T15:36:35.344Z,18.00
2022-12-11T15:39:04.212Z,19.63
2022-12-11T15:44:24.284Z,21.98
2022-12-11T15:46:50.946Z,26.45
2022-12-11T15:49:18.873Z,23.02
2022-12-11T15:51:45.912Z,22.75
2022-12-11T15:54:12.295Z,21.17
2022-12-11T15:56:39.983Z,24.23
2022-12-11T15:59:06.970Z,25.17
2022-12-11T16:01:34.092Z,26.10
2022-12-11T16:04:04.907Z,27.05
2022-12-11T16:06:31.941Z,35.30
2022-12-11T16:08:58.463Z,42.08
2022-12-11T16:11:24.958Z,35.63
2022-12-11T16:13:51.456Z,29.40
2022-12-11T16:16:17.975Z,37.10
2022-12-11T16:18:44.525Z,35.85
2022-12-11T16:21:11.029Z,34.75
2022-12-11T16:23:37.467Z,36.20
2022-12-11T16:26:09.302Z,29.58
2022-12-11T16:28:35.793Z,33.00
2022-12-11T16:31:02.336Z,31.13
2022-12-11T16:33:28.969Z,32.35
2022-12-11T16:35:55.485Z,29.40
2022-12-11T16:38:21.991Z,25.85
2022-12-11T16:40:48.374Z,24.70
2022-12-11T16:43:15.040Z,28.13
2022-12-11T16:45:42.913Z,30.60
2022-12-11T16:48:09.441Z,30.40
2022-12-11T16:50:36.594Z,31.60
2022-12-11T16:53:03.073Z,31.65
2022-12-11T16:55:29.559Z,31.48
2022-12-11T16:57:56.057Z,33.78
2022-12-11T17:00:22.929Z,30.83
2022-12-11T17:02:49.531Z,32.35
2022-12-11T17:05:16.235Z,33.42
2022-12-11T17:07:43.011Z,30.58
2022-12-11T17:10:10.668Z,31.10
2022-12-11T17:12:37.293Z,29.13
2022-12-11T17:15:03.977Z,27.02
2022-12-11T17:17:30.614Z,33.83
2022-12-11T17:19:57.094Z,32.15
2022-12-11T17:22:23.486Z,28.45
2022-12-11T17:24:49.857Z,28.25
2022-12-11T17:27:16.753Z,30.77
2022-12-11T17:29:43.285Z,29.05
2022-12-11T17:32:09.826Z,28.33
2022-12-11T17:34:38.421Z,31.02
2022-12-11T17:37:05.928Z,29.13
2022-12-11T17:39:32.752Z,28.27
2022-12-11T17:41:59.295Z,26.63
2022-12-11T17:44:26.910Z,28.05
2022-12-11T17:46:53.615Z,27.58
2022-12-11T17:49:20.133Z,27.55
2022-12-11T17:51:46.709Z,25.83
2022-12-11T17:54:13.335Z,26.92
2022-12-11T17:56:40.657Z,27.85
2022-12-11T17:59:07.404Z,25.08
2022-12-11T18:01:33.879Z,22.92
2022-12-11T18:04:02.007Z,22.77
2022-12-11T18:06:29.450Z,28.63
2022-12-11T18:08:56.522Z,24.08
2022-12-11T18:11:24.448Z,22.85
2022-12-11T18:13:53.636Z,23.25
2022-12-11T18:16:38.920Z,21.15
2022-12-11T18:19:08.555Z,22.85
2022-12-11T18:21:40.490Z,24.65
2022-12-11T18:24:08.725Z,23.90
2022-12-11T18:26:35.609Z,26.77
2022-12-11T18:29:02.169Z,29.45
2022-12-11T18:31:28.709Z,31.10
2022-12-11T18:33:55.340Z,29.70
2022-12-11T18:36:21.981Z,29.83
2022-12-11T18:38:49.072Z,28.40
2022-12-11T18:41:17.192Z,23.67
2022-12-11T18:43:44.182Z,27.08
2022-12-11T18:46:14.456Z,25.90
2022-12-11T18:48:42.301Z,25.30
2022-12-11T18:51:11.281Z,25.20
2022-12-11T18:53:41.561Z,25.63
2022-12-11T18:56:11.112Z,25.33
2022-12-11T18:58:37.960Z,25.63
2022-12-11T19:01:22.986Z,26.13
2022-12-11T19:03:51.378Z,23.17
2022-12-11T19:06:21.078Z,26.13
2022-12-11T19:08:48.355Z,24.48
2022-12-11T19:11:17.504Z,24.55
2022-12-11T19:13:44.398Z,27.88
2022-12-11T19:16:19.138Z,27.08
2022-12-11T19:18:45.841Z,34.75
2022-12-11T19:21:13.490Z,30.48
2022-12-11T19:23:40.337Z,28.20
2022-12-11T19:26:14.648Z,26.95
2022-12-11T19:28:41.718Z,25.23
2022-12-11T19:31:10.832Z,27.00
2022-12-11T19:33:37.405Z,26.83
2022-12-11T19:36:13.796Z,26.48
2022-12-11T19:38:42.848Z,24.50
2022-12-11T19:41:13.855Z,23.80
2022-12-11T19:43:40.415Z,28.45
2022-12-11T19:46:08.372Z,30.95
2022-12-11T19:48:37.556Z,37.58
2022-12-11T19:51:06.279Z,43.97
2022-12-11T19:53:33.912Z,37.70
2022-12-11T19:56:00.333Z,31.65
2022-12-11T19:58:27.016Z,28.35
2022-12-11T20:00:53.800Z,26.40
2022-12-11T20:03:20.637Z,26.77
2022-12-11T20:05:47.228Z,26.30
2022-12-11T20:08:35.703Z,27.30
2022-12-11T20:11:12.814Z,30.60
2022-12-11T20:13:43.212Z,27.90
2022-12-11T20:16:10.768Z,29.67
2022-12-11T20:18:38.002Z,33.55
2022-12-11T20:21:07.977Z,34.08
2022-12-11T20:23:35.335Z,37.97
2022-12-11T20:26:12.641Z,32.17
2022-12-11T20:28:39.630Z,29.70
2022-12-11T20:31:18.089Z,29.38
2022-12-11T20:33:46.099Z,30.10
2022-12-11T20:36:14.722Z,29.13
2022-12-11T20:38:41.932Z,28.20
2022-12-11T20:41:10.381Z,26.95
2022-12-11T20:43:37.854Z,29.55
2022-12-11T20:46:10.331Z,32.55
2022-12-11T20:48:37.362Z,28.48
2022-12-11T20:51:05.529Z,31.15
2022-12-11T20:53:32.161Z,28.35
2022-12-11T20:55:58.643Z,30.35
2022-12-11T20:58:25.239Z,31.75
2022-12-11T21:00:51.856Z,31.75
2022-12-11T21:03:18.344Z,35.95
2022-12-11T21:05:45.861Z,34.50
2022-12-11T21:08:13.201Z,40.25
2022-12-11T21:10:44.585Z,37.50
2022-12-11T21:13:11.155Z,46.78
2022-12-11T21:15:39.243Z,54.20
2022-12-11T21:18:06.983Z,56.97
2022-12-11T21:20:33.623Z,51.90
2022-12-11T21:23:00.202Z,39.20
2022-12-11T21:25:26.864Z,35.53
2022-12-11T21:27:53.355Z,39.63
2022-12-11T21:30:19.936Z,42.03
2022-12-11T21:32:47.252Z,38.42
2022-12-11T21:35:14.364Z,37.15
2022-12-11T21:37:41.777Z,37.05
2022-12-11T21:40:09.302Z,36.97
2022-12-11T21:42:35.837Z,36.95
2022-12-11T21:47:50.265Z,35.28
2022-12-11T21:50:17.037Z,32.25
2022-12-11T21:52:43.453Z,35.50
2022-12-11T21:55:11.969Z,37.42
2022-12-11T21:57:38.663Z,44.25
2022-12-11T22:00:05.999Z,42.38
2022-12-11T22:02:36.068Z,47.55
2022-12-11T22:05:07.844Z,36.30
2022-12-11T22:07:34.212Z,37.08
2022-12-11T22:10:00.723Z,37.53
2022-12-11T22:12:28.401Z,41.85
2022-12-11T22:14:55.512Z,39.85
2022-12-11T22:17:23.049Z,43.88
2022-12-11T22:19:52.002Z,44.58
2022-12-11T22:22:19.304Z,45.78
2022-12-11T22:24:46.432Z,33.80
2022-12-11T22:27:13.064Z,39.72
2022-12-11T22:29:39.430Z,45.50
2022-12-11T22:32:05.970Z,44.05
2022-12-11T22:34:32.495Z,36.20
2022-12-11T22:36:58.880Z,35.78
2022-12-11T22:39:25.227Z,40.50
2022-12-11T22:41:51.663Z,41.05
2022-12-11T22:44:20.502Z,37.42
2022-12-11T22:46:50.301Z,38.33
2022-12-11T22:49:18.790Z,34.63
2022-12-11T22:51:45.322Z,37.30
2022-12-11T22:54:11.917Z,37.08
2022-12-11T22:56:38.659Z,34.95
2022-12-11T22:59:05.189Z,36.47
2022-12-11T23:01:31.778Z,32.67
2022-12-11T23:03:58.270Z,33.43
2022-12-11T23:06:25.084Z,34.78
2022-12-11T23:08:55.215Z,37.13
2022-12-11T23:11:30.946Z,33.92
2022-12-11T23:13:57.945Z,33.55
2022-12-11T23:16:25.803Z,36.50
2022-12-11T23:18:52.477Z,34.05
2022-12-11T23:21:19.178Z,34.67
2022-12-11T23:23:45.838Z,33.58
2022-12-11T23:26:14.063Z,34.88
2022-12-11T23:28:41.438Z,32.38
2022-12-11T23:31:08.884Z,31.58
2022-12-11T23:33:35.557Z,32.10
2022-12-11T23:36:02.353Z,35.42
2022-12-11T23:38:29.057Z,29.90
2022-12-11T23:40:55.862Z,29.98
2022-12-11T23:43:22.452Z,31.08
2022-12-11T23:45:49.110Z,30.77
2022-12-11T23:48:15.715Z,30.70
2022-12-11T23:50:43.686Z,31.45
2022-12-11T23:53:11.423Z,30.27
2022-12-11T23:55:40.214Z,29.48
2022-12-11T23:58:06.965Z,30.98
